createdAt,value
2023-04-11T00:00:48.218Z,14.1
2023-04-11T00:02:48.475Z,14.1
2023-04-11T00:04:48.259Z,14
2023-04-11T00:06:48.291Z,13.9
2023-04-11T00:08:48.228Z,13.9
2023-04-11T00:10:48.567Z,13.8
2023-04-11T00:12:48.216Z,13.8
2023-04-11T00:14:48.214Z,13.7
2023-04-11T00:16:48.234Z,13.6
2023-04-11T00:18:48.253Z,13.6
2023-04-11T00:20:48.215Z,13.5
2023-04-11T00:22:48.203Z,13.5
2023-04-11T00:24:48.188Z,13.4
2023-04-11T00:26:48.212Z,13.4
2023-04-11T00:28:48.172Z,13.3
2023-04-11T00:30:48.197Z,13.2
2023-04-11T00:32:48.213Z,13.2
2023-04-11T00:34:48.184Z,13.1
2023-04-11T00:36:48.222Z,13.1
2023-04-11T00:38:48.281Z,13
2023-04-11T00:40:48.153Z,12.9
2023-04-11T00:42:48.163Z,12.9
2023-04-11T00:44:48.163Z,12.9
2023-04-11T00:46:48.179Z,12.8
2023-04-11T00:48:48.197Z,12.7
2023-04-11T00:50:48.202Z,12.7
2023-04-11T00:52:48.155Z,12.7
2023-04-11T00:54:48.141Z,12.6
2023-04-11T00:56:48.168Z,12.6
2023-04-11T00:58:48.132Z,12.5
2023-04-11T01:00:48.182Z,12.5
2023-04-11T01:02:48.190Z,12.5
2023-04-11T01:04:48.156Z,12.4
2023-04-11T01:06:48.132Z,12.3
2023-04-11T01:08:48.141Z,12.3
2023-04-11T01:10:48.253Z,12.2
2023-04-11T01:12:48.138Z,12.3
2023-04-11T01:14:48.140Z,12.2
2023-04-11T01:16:48.162Z,12.1
2023-04-11T01:18:48.142Z,12.1
2023-04-11T01:20:48.112Z,12
2023-04-11T01:22:48.140Z,12.1
2023-04-11T01:24:48.136Z,12
2023-04-11T01:26:48.149Z,11.9
2023-04-11T01:28:48.142Z,11.9
2023-04-11T01:30:48.142Z,11.8
2023-04-11T01:32:48.160Z,11.9
2023-04-11T01:34:48.100Z,11.8
2023-04-11T01:36:48.154Z,11.7
2023-04-11T01:38:48.134Z,11.7
2023-04-11T01:40:48.107Z,11.6
2023-04-11T01:42:48.092Z,11.7
2023-04-11T01:44:48.096Z,11.6
2023-04-11T01:46:48.113Z,11.5
2023-04-11T01:48:48.135Z,11.5
2023-04-11T01:50:48.086Z,11.4
2023-04-11T01:52:48.100Z,11.5
2023-04-11T01:54:48.260Z,11.4
2023-04-11T01:56:48.088Z,11.4
2023-04-11T01:58:48.081Z,11.3
2023-04-11T02:00:48.067Z,11.3
2023-04-11T02:02:48.136Z,11.3
2023-04-11T02:04:48.063Z,11.2
2023-04-11T02:06:48.072Z,11.2
2023-04-11T02:08:48.078Z,11.2
2023-04-11T02:10:48.039Z,11.1
2023-04-11T02:12:48.074Z,11.2
2023-04-11T02:14:48.061Z,11.1
2023-04-11T02:16:48.083Z,11.1
2023-04-11T02:18:48.049Z,11
2023-04-11T02:20:48.056Z,11
2023-04-11T02:22:48.033Z,11
2023-04-11T02:24:48.048Z,10.9
2023-04-11T02:26:48.026Z,10.9
2023-04-11T02:28:48.064Z,10.9
2023-04-11T02:30:48.289Z,10.8
2023-04-11T02:32:48.033Z,10.9
2023-04-11T02:34:48.018Z,10.8
2023-04-11T02:36:48.019Z,10.7
2023-04-11T02:38:48.007Z,10.7
2023-04-11T02:40:48.074Z,10.6
2023-04-11T02:42:47.993Z,10.7
2023-04-11T02:44:48.092Z,10.6
2023-04-11T02:46:48.047Z,10.6
2023-04-11T02:48:48.003Z,10.5
2023-04-11T02:50:48.029Z,10.5
2023-04-11T02:52:48.070Z,10.5
2023-04-11T02:54:47.982Z,10.5
2023-04-11T02:56:48.009Z,10.4
2023-04-11T02:58:47.996Z,10.4
2023-04-11T03:00:47.988Z,10.3
2023-04-11T03:02:48.060Z,10.4
2023-04-11T03:04:47.988Z,10.3
2023-04-11T03:06:47.999Z,10.3
2023-04-11T03:08:48.001Z,10.2
2023-04-11T03:10:47.978Z,10.2
2023-04-11T03:12:47.996Z,10.3
2023-04-11T03:14:47.985Z,10.2
2023-04-11T03:16:47.979Z,10.1
2023-04-11T03:18:47.988Z,10.1
2023-04-11T03:20:47.980Z,10.1
2023-04-11T03:22:47.981Z,10.1
2023-04-11T03:24:47.981Z,10
2023-04-11T03:26:47.983Z,10
2023-04-11T03:28:47.965Z,10
2023-04-11T03:30:47.962Z,9.9
2023-04-11T03:32:48.061Z,10
2023-04-11T03:34:47.959Z,9.9
2023-04-11T03:36:47.976Z,9.9
2023-04-11T03:38:47.966Z,9.9
2023-04-11T03:40:47.929Z,9.8
2023-04-11T03:42:47.964Z,9.8
2023-04-11T03:44:47.994Z,9.8
2023-04-11T03:46:47.985Z,9.7
2023-04-11T03:48:47.911Z,9.7
2023-04-11T03:50:47.970Z,9.7
2023-04-11T03:52:47.944Z,9.7
2023-04-11T03:54:48.003Z,9.7
2023-04-11T03:56:47.933Z,9.6
2023-04-11T03:58:47.964Z,9.6
2023-04-11T04:00:47.955Z,9.6
2023-04-11T04:02:48.032Z,9.6
2023-04-11T04:04:48.137Z,9.5
2023-04-11T04:06:47.927Z,9.5
2023-04-11T04:08:47.902Z,9.4
2023-04-11T04:10:47.925Z,9.4
2023-04-11T04:12:47.914Z,9.5
2023-04-11T04:14:47.898Z,9.4
2023-04-11T04:16:47.951Z,9.4
2023-04-11T04:18:47.926Z,9.3
2023-04-11T04:20:47.884Z,9.3
2023-04-11T04:22:47.896Z,9.3
2023-04-11T04:24:47.935Z,9.3
2023-04-11T04:26:47.921Z,9.2
2023-04-11T04:28:47.890Z,9.2
2023-04-11T04:30:47.870Z,9.1
2023-04-11T04:32:48.045Z,9.2
2023-04-11T04:34:50.414Z,9.2
2023-04-11T04:36:48.116Z,9.1
2023-04-11T04:38:47.944Z,9.1
2023-04-11T04:40:49.681Z,9
2023-04-11T04:42:47.898Z,9.1
2023-04-11T04:44:47.878Z,9
2023-04-11T04:46:47.876Z,9
2023-04-11T04:48:47.861Z,9
2023-04-11T04:50:47.888Z,8.9
2023-04-11T04:52:47.860Z,9
2023-04-11T04:54:47.914Z,8.9
2023-04-11T04:56:47.916Z,8.9
2023-04-11T04:58:47.912Z,8.9
2023-04-11T05:00:48.096Z,8.8
2023-04-11T05:02:48.280Z,8.9
2023-04-11T05:04:48.108Z,8.8
2023-04-11T05:06:47.859Z,8.8
2023-04-11T05:08:48.082Z,8.8
2023-04-11T05:10:48.212Z,8.7
2023-04-11T05:12:48.019Z,8.8
2023-04-11T05:14:48.004Z,8.7
2023-04-11T05:16:48.082Z,8.7
2023-04-11T05:18:47.952Z,8.7
2023-04-11T05:20:48.144Z,8.6
2023-04-11T05:22:48.302Z,8.7
2023-04-11T05:24:47.872Z,8.6
2023-04-11T05:26:47.868Z,8.6
2023-04-11T05:28:47.898Z,8.6
2023-04-11T05:30:47.914Z,8.5
2023-04-11T05:32:47.983Z,8.5
2023-04-11T05:34:47.960Z,8.5
2023-04-11T05:36:47.873Z,8.4
2023-04-11T05:38:47.842Z,8.4
2023-04-11T05:40:47.822Z,8.4
2023-04-11T05:42:48.075Z,8.4
2023-04-11T05:44:47.831Z,8.4
2023-04-11T05:46:47.841Z,8.3
2023-04-11T05:48:47.965Z,8.3
2023-04-11T05:50:48.166Z,8.3
2023-04-11T05:52:48.056Z,8.3
2023-04-11T05:54:48.041Z,8.3
2023-04-11T05:56:48.067Z,8.2
2023-04-11T05:58:48.097Z,8.2
2023-04-11T06:00:48.042Z,8.2
2023-04-11T06:02:48.313Z,8.3
2023-04-11T06:04:48.036Z,8.2
2023-04-11T06:06:48.046Z,8.2
2023-04-11T06:08:48.027Z,8.2
2023-04-11T06:10:47.941Z,8.2
2023-04-11T06:12:48.052Z,8.2
2023-04-11T06:14:47.980Z,8.2
2023-04-11T06:16:48.111Z,8.1
2023-04-11T06:18:48.041Z,8.1
2023-04-11T06:20:48.022Z,8.1
2023-04-11T06:22:48.056Z,8.1
2023-04-11T06:24:47.990Z,8.1
2023-04-11T06:26:48.101Z,8
2023-04-11T06:28:48.036Z,8
2023-04-11T06:30:49.213Z,8
2023-04-11T06:32:48.079Z,8.1
2023-04-11T06:34:47.968Z,8.1
2023-04-11T06:36:48.071Z,8
2023-04-11T06:38:47.916Z,8
2023-04-11T06:40:47.996Z,7.9
2023-04-11T06:42:48.040Z,8
2023-04-11T06:44:47.983Z,8
2023-04-11T06:46:47.968Z,7.9
2023-04-11T06:48:48.003Z,7.9
2023-04-11T06:50:49.241Z,7.9
2023-04-11T06:52:47.986Z,7.9
2023-04-11T06:54:47.909Z,7.8
2023-04-11T06:56:48.012Z,7.8
2023-04-11T06:58:47.929Z,7.8
2023-04-11T07:00:47.994Z,7.7
2023-04-11T07:02:48.168Z,7.7
2023-04-11T07:04:48.072Z,7.7
2023-04-11T07:06:47.923Z,7.7
2023-04-11T07:08:48.001Z,7.7
2023-04-11T07:10:47.918Z,7.6
2023-04-11T07:12:47.952Z,7.6
2023-04-11T07:14:48.025Z,7.6
2023-04-11T07:16:47.985Z,7.6
2023-04-11T07:18:47.880Z,7.6
2023-04-11T07:20:47.979Z,7.5
2023-04-11T07:22:48.003Z,7.6
2023-04-11T07:24:47.896Z,7.5
2023-04-11T07:26:47.826Z,7.5
2023-04-11T07:28:48.043Z,7.5
2023-04-11T07:30:47.997Z,7.5
2023-04-11T07:32:48.156Z,7.5
2023-04-11T07:34:47.924Z,7.5
2023-04-11T07:36:47.962Z,7.4
2023-04-11T07:38:48.023Z,7.4
2023-04-11T07:40:47.890Z,7.4
2023-04-11T07:42:47.836Z,7.5
2023-04-11T07:44:47.801Z,7.4
2023-04-11T07:46:47.851Z,7.4
2023-04-11T07:48:47.890Z,7.4
2023-04-11T07:50:47.910Z,7.4
2023-04-11T07:52:47.876Z,7.4
2023-04-11T07:54:47.986Z,7.3
2023-04-11T07:56:47.958Z,7.3
2023-04-11T07:58:47.868Z,7.3
2023-04-11T08:00:47.924Z,7.3
2023-04-11T08:02:47.937Z,7.4
2023-04-11T08:04:47.878Z,7.4
2023-04-11T08:06:47.849Z,7.3
2023-04-11T08:08:47.995Z,7.3
2023-04-11T08:10:48.345Z,7.3
2023-04-11T08:12:47.855Z,7.4
2023-04-11T08:14:47.836Z,7.4
2023-04-11T08:16:47.976Z,7.4
2023-04-11T08:18:47.946Z,7.3
2023-04-11T08:20:47.874Z,7.3
2023-04-11T08:22:47.788Z,7.4
2023-04-11T08:24:47.885Z,7.3
2023-04-11T08:26:47.899Z,7.3
2023-04-11T08:28:47.876Z,7.3
2023-04-11T08:30:47.861Z,7.3
2023-04-11T08:32:47.713Z,7.3
2023-04-11T08:34:47.751Z,7.3
2023-04-11T08:37:02.336Z,7.3
2023-04-11T08:38:47.837Z,7.3
2023-04-11T08:40:47.874Z,7.2
2023-04-11T08:42:47.843Z,7.3
2023-04-11T08:44:47.818Z,7.2
2023-04-11T08:46:47.900Z,7.2
2023-04-11T08:48:47.907Z,7.2
2023-04-11T08:50:47.807Z,7.3
2023-04-11T08:52:47.777Z,7.3
2023-04-11T08:54:47.769Z,7.2
2023-04-11T08:56:47.872Z,7.3
2023-04-11T08:58:47.870Z,7.2
2023-04-11T09:00:47.803Z,7.2
2023-04-11T09:02:47.906Z,7.2
2023-04-11T09:04:47.821Z,7.2
2023-04-11T09:06:47.870Z,7.1
2023-04-11T09:08:47.783Z,7.1
2023-04-11T09:10:47.795Z,7.1
2023-04-11T09:12:47.775Z,7.1
2023-04-11T09:14:47.841Z,7.1
2023-04-11T09:16:47.833Z,7.1
2023-04-11T09:18:47.781Z,7.1
2023-04-11T09:20:47.695Z,7.1
2023-04-11T09:22:47.765Z,7.1
2023-04-11T09:24:47.881Z,7.1
2023-04-11T09:26:47.594Z,7
2023-04-11T09:28:47.836Z,7.1
2023-04-11T09:30:47.831Z,7
2023-04-11T09:32:47.851Z,7.1
2023-04-11T09:34:47.793Z,7
2023-04-11T09:36:47.738Z,7
2023-04-11T09:38:47.762Z,7
2023-04-11T09:40:47.803Z,7
2023-04-11T09:42:47.678Z,7
2023-04-11T09:44:47.644Z,7
2023-04-11T09:46:47.831Z,7
2023-04-11T09:48:47.613Z,7
2023-04-11T09:50:47.657Z,6.9
2023-04-11T09:52:47.598Z,7
2023-04-11T09:54:47.706Z,6.9
2023-04-11T09:56:47.697Z,6.9
2023-04-11T09:58:47.728Z,6.9
2023-04-11T10:00:47.721Z,6.9
2023-04-11T10:02:47.847Z,6.9
2023-04-11T10:04:47.659Z,6.9
2023-04-11T10:06:47.727Z,6.9
2023-04-11T10:08:47.708Z,6.9
2023-04-11T10:10:47.745Z,6.9
2023-04-11T10:12:47.649Z,7
2023-04-11T10:14:47.600Z,6.9
2023-04-11T10:16:47.687Z,6.9
2023-04-11T10:18:47.697Z,6.9
2023-04-11T10:20:47.611Z,6.9
2023-04-11T10:22:47.623Z,7
2023-04-11T10:24:47.731Z,6.9
2023-04-11T10:26:47.666Z,6.9
2023-04-11T10:28:47.578Z,6.9
2023-04-11T10:30:47.628Z,7
2023-04-11T10:32:47.626Z,7
2023-04-11T10:34:47.664Z,7
2023-04-11T10:36:47.802Z,7
2023-04-11T10:38:47.598Z,7.1
2023-04-11T10:40:47.660Z,7.1
2023-04-11T10:42:47.710Z,7.1
2023-04-11T10:44:47.755Z,7.1
2023-04-11T10:46:47.604Z,7.1
2023-04-11T10:48:47.559Z,7.1
2023-04-11T10:50:47.532Z,7.1
2023-04-11T10:52:47.608Z,7.2
2023-04-11T10:54:47.548Z,7.2
2023-04-11T10:56:47.541Z,7.2
2023-04-11T10:58:47.507Z,7.2
2023-04-11T11:00:47.579Z,7.2
2023-04-11T11:02:47.627Z,7.3
2023-04-11T11:04:47.650Z,7.3
2023-04-11T11:06:54.806Z,7.3
2023-04-11T11:08:47.484Z,7.3
2023-04-11T11:10:47.491Z,7.4
2023-04-11T11:12:47.518Z,7.5
2023-04-11T11:14:47.606Z,7.4
2023-04-11T11:16:47.549Z,7.5
2023-04-11T11:18:47.521Z,7.5
2023-04-11T11:20:47.520Z,7.5
2023-04-11T11:22:47.533Z,7.6
2023-04-11T11:24:47.477Z,7.6
2023-04-11T11:26:47.489Z,7.6
2023-04-11T11:28:47.538Z,7.6
2023-04-11T11:30:47.493Z,7.6
2023-04-11T11:32:47.492Z,7.7
2023-04-11T11:34:47.323Z,7.7
2023-04-11T11:36:47.370Z,7.8
2023-04-11T11:38:47.336Z,7.8
2023-04-11T11:40:47.355Z,7.8
2023-04-11T11:42:47.326Z,7.9
2023-04-11T11:44:47.364Z,7.9
2023-04-11T11:46:47.453Z,8
2023-04-11T11:48:47.316Z,8
2023-04-11T11:50:47.315Z,8.1
2023-04-11T11:52:47.324Z,8.2
2023-04-11T11:54:48.461Z,8.2
2023-04-11T11:56:47.322Z,8.2
2023-04-11T11:58:47.313Z,8.3
2023-04-11T12:00:47.314Z,8.4
2023-04-11T12:02:47.443Z,8.5
2023-04-11T12:04:47.401Z,8.5
2023-04-11T12:06:47.326Z,8.5
2023-04-11T12:08:47.595Z,8.6
2023-04-11T12:10:47.280Z,8.6
2023-04-11T12:12:52.932Z,8.7
2023-04-11T12:14:47.322Z,8.8
2023-04-11T12:16:47.351Z,8.9
2023-04-11T12:18:47.378Z,8.9
2023-04-11T12:20:47.303Z,9
2023-04-11T12:22:47.331Z,9.1
2023-04-11T12:24:47.290Z,9.1
2023-04-11T12:27:02.717Z,9.2
2023-04-11T12:28:47.283Z,9.2
2023-04-11T12:30:47.290Z,9.3
2023-04-11T12:32:47.320Z,9.4
2023-04-11T12:34:47.314Z,9.5
2023-04-11T12:36:47.262Z,9.8
2023-04-11T12:38:47.267Z,10.1
2023-04-11T12:40:47.289Z,10.3
2023-04-11T12:42:56.134Z,10.5
2023-04-11T12:44:47.230Z,10.7
2023-04-11T12:46:47.347Z,10.8
2023-04-11T12:48:47.259Z,10.9
2023-04-11T12:50:47.282Z,11.1
2023-04-11T12:52:47.246Z,11.5
2023-04-11T12:54:47.224Z,11.8
2023-04-11T12:56:47.284Z,12.1
2023-04-11T12:58:47.445Z,12.6
2023-04-11T13:00:47.235Z,12.9
2023-04-11T13:02:47.350Z,13.1
2023-04-11T13:04:47.286Z,13.1
2023-04-11T13:06:47.245Z,13.1
2023-04-11T13:08:47.249Z,13.1
2023-04-11T13:10:47.222Z,13.1
2023-04-11T13:12:47.240Z,13.2
2023-04-11T13:14:47.269Z,13.2
2023-04-11T13:16:47.307Z,13.2
2023-04-11T13:18:47.247Z,13.2
2023-04-11T13:20:47.206Z,13.2
2023-04-11T13:22:47.211Z,13.3
2023-04-11T13:24:47.192Z,13.3
2023-04-11T13:26:47.225Z,13.3
2023-04-11T13:28:47.198Z,13.4
2023-04-11T13:30:47.187Z,13.5
2023-04-11T13:32:47.215Z,13.6
2023-04-11T13:34:47.227Z,13.6
2023-04-11T13:36:47.209Z,13.7
2023-04-11T13:38:47.216Z,13.8
2023-04-11T13:40:47.212Z,13.8
2023-04-11T13:42:48.454Z,14
2023-04-11T13:44:47.168Z,14
2023-04-11T13:46:47.159Z,14.1
2023-04-11T13:48:47.177Z,14.2
2023-04-11T13:50:47.220Z,14.2
2023-04-11T13:52:47.183Z,14.4
2023-04-11T13:54:47.155Z,14.5
2023-04-11T13:56:47.167Z,14.6
2023-04-11T13:58:47.175Z,14.6
2023-04-11T14:00:47.162Z,14.7
2023-04-11T14:02:48.334Z,14.9
2023-04-11T14:04:47.170Z,14.9
2023-04-11T14:06:47.202Z,15
2023-04-11T14:08:48.204Z,15
2023-04-11T14:10:47.183Z,15.1
2023-04-11T14:12:47.193Z,15.3
2023-04-11T14:14:47.164Z,15.3
2023-04-11T14:16:47.224Z,15.4
2023-04-11T14:18:47.163Z,15.5
2023-04-11T14:20:47.189Z,15.6
2023-04-11T14:22:47.131Z,15.7
2023-04-11T14:24:47.156Z,15.8
2023-04-11T14:26:47.140Z,15.8
2023-04-11T14:28:47.178Z,15.8
2023-04-11T14:30:47.138Z,16
2023-04-11T14:32:47.169Z,16.2
2023-04-11T14:34:47.124Z,16.3
2023-04-11T14:36:47.171Z,16.3
2023-04-11T14:38:47.109Z,16.4
2023-04-11T14:40:47.119Z,16.5
2023-04-11T14:42:47.132Z,16.6
2023-04-11T14:44:47.114Z,16.8
2023-04-11T14:46:47.090Z,16.9
2023-04-11T14:48:47.125Z,16.9
2023-04-11T14:50:47.078Z,17
2023-04-11T14:52:47.102Z,17.1
2023-04-11T14:54:47.108Z,17.2
2023-04-11T14:56:47.110Z,17.3
2023-04-11T14:58:47.113Z,17.5
2023-04-11T15:00:47.099Z,17.5
2023-04-11T15:02:47.138Z,17.5
2023-04-11T15:04:47.123Z,17.6
2023-04-11T15:06:47.069Z,17.6
2023-04-11T15:08:47.068Z,17.8
2023-04-11T15:10:47.149Z,17.9
2023-04-11T15:12:47.147Z,18.2
2023-04-11T15:14:47.089Z,18.2
2023-04-11T15:16:47.102Z,18.3
2023-04-11T15:18:48.763Z,18.3
2023-04-11T15:20:47.071Z,18.3
2023-04-11T15:22:47.073Z,18.3
2023-04-11T15:24:47.059Z,18.4
2023-04-11T15:26:47.068Z,18.5
2023-04-11T15:28:47.052Z,18.5
2023-04-11T15:30:47.058Z,18.6
2023-04-11T15:32:47.068Z,18.6
2023-04-11T15:34:47.100Z,18.8
2023-04-11T15:36:47.038Z,18.8
2023-04-11T15:38:47.054Z,18.9
2023-04-11T15:40:47.041Z,19
2023-04-11T15:42:47.017Z,19.2
2023-04-11T15:44:47.021Z,19.3
2023-04-11T15:46:49.051Z,19.4
2023-04-11T15:48:47.037Z,19.4
2023-04-11T15:50:47.042Z,19.4
2023-04-11T15:52:47.020Z,19.4
2023-04-11T15:54:47.010Z,19.5
2023-04-11T15:56:47.037Z,19.6
2023-04-11T15:58:47.041Z,19.6
2023-04-11T16:00:47.039Z,19.7
2023-04-11T16:02:47.211Z,19.7
2023-04-11T16:04:48.430Z,20
2023-04-11T16:06:47.006Z,19.9
2023-04-11T16:08:46.993Z,20
2023-04-11T16:10:47.017Z,20.1
2023-04-11T16:12:47.010Z,20.2
2023-04-11T16:14:47.039Z,20.2
2023-04-11T16:16:47.055Z,20.1
2023-04-11T16:18:46.995Z,20.1
2023-04-11T16:20:47.022Z,20.1
2023-04-11T16:22:47.015Z,20.2
2023-04-11T16:24:47.022Z,20.4
2023-04-11T16:26:46.984Z,20.4
2023-04-11T16:28:47.012Z,20.4
2023-04-11T16:30:48.363Z,20.5
2023-04-11T16:32:47.059Z,20.6
2023-04-11T16:34:46.990Z,20.8
2023-04-11T16:36:46.993Z,20.7
2023-04-11T16:38:46.984Z,20.8
2023-04-11T16:40:46.981Z,20.8
2023-04-11T16:42:46.956Z,20.7
2023-04-11T16:44:46.993Z,20.8
2023-04-11T16:46:46.964Z,20.8
2023-04-11T16:48:46.969Z,20.8
2023-04-11T16:50:46.958Z,20.9
2023-04-11T16:52:47.046Z,21
2023-04-11T16:54:46.962Z,21
2023-04-11T16:56:46.954Z,20.9
2023-04-11T16:58:46.965Z,21
2023-04-11T17:00:47.047Z,21
2023-04-11T17:02:46.984Z,21.1
2023-04-11T17:04:47.110Z,21.5
2023-04-11T17:06:46.996Z,21.3
2023-04-11T17:08:46.925Z,21.4
2023-04-11T17:10:46.951Z,21.4
2023-04-11T17:12:46.952Z,21.5
2023-04-11T17:14:46.925Z,21.5
2023-04-11T17:16:46.952Z,21.6
2023-04-11T17:18:46.934Z,21.6
2023-04-11T17:20:46.917Z,21.6
2023-04-11T17:22:46.956Z,21.8
2023-04-11T17:24:46.901Z,21.8
2023-04-11T17:26:46.924Z,21.9
2023-04-11T17:28:46.935Z,22.1
2023-04-11T17:30:46.997Z,22.2
2023-04-11T17:32:46.955Z,22.1
2023-04-11T17:34:46.924Z,22.2
2023-04-11T17:36:46.904Z,22.1
2023-04-11T17:38:46.989Z,22.1
2023-04-11T17:40:46.941Z,22.1
2023-04-11T17:42:46.966Z,22.1
2023-04-11T17:44:46.892Z,22.2
2023-04-11T17:46:46.950Z,22.3
2023-04-11T17:48:46.943Z,22.2
2023-04-11T17:50:46.905Z,22.5
2023-04-11T17:52:46.894Z,22.6
2023-04-11T17:54:46.902Z,22.7
2023-04-11T17:56:46.897Z,22.7
2023-04-11T17:58:47.934Z,22.7
2023-04-11T18:00:55.368Z,22.8
2023-04-11T18:02:46.966Z,22.6
2023-04-11T18:04:46.941Z,22.6
2023-04-11T18:06:47.051Z,22.6
2023-04-11T18:08:51.317Z,22.6
2023-04-11T18:10:46.880Z,22.6
2023-04-11T18:12:46.876Z,22.8
2023-04-11T18:14:46.860Z,23
2023-04-11T18:16:46.905Z,23
2023-04-11T18:18:46.877Z,23.2
2023-04-11T18:20:46.904Z,23.1
2023-04-11T18:22:46.867Z,23
2023-04-11T18:24:46.884Z,23.1
2023-04-11T18:26:46.893Z,23.1
2023-04-11T18:28:46.841Z,23
2023-04-11T18:30:46.839Z,23
2023-04-11T18:34:46.862Z,23.4
2023-04-11T18:36:47.203Z,23.4
2023-04-11T18:38:47.238Z,23.4
2023-04-11T18:40:48.345Z,23.2
2023-04-11T18:42:47.128Z,23.2
2023-04-11T18:44:46.849Z,23.3
2023-04-11T18:46:47.068Z,23.4
2023-04-11T18:48:46.820Z,23.5
2023-04-11T18:50:46.814Z,23.4
2023-04-11T18:52:50.592Z,23.4
2023-04-11T18:54:46.849Z,23.7
2023-04-11T18:56:48.497Z,23.6
2023-04-11T18:58:49.678Z,23.6
2023-04-11T19:00:46.871Z,23.7
2023-04-11T19:02:47.159Z,23.6
2023-04-11T19:04:47.279Z,23.8
2023-04-11T19:06:46.846Z,23.7
2023-04-11T19:08:46.886Z,23.7
2023-04-11T19:10:46.814Z,23.7
2023-04-11T19:12:46.828Z,23.7
2023-04-11T19:14:46.801Z,23.8
2023-04-11T19:16:46.840Z,23.9
2023-04-11T19:18:46.800Z,23.8
2023-04-11T19:20:46.816Z,23.8
2023-04-11T19:22:46.770Z,23.7
2023-04-11T19:24:46.815Z,24
2023-04-11T19:26:46.765Z,24
2023-04-11T19:28:46.810Z,24
2023-04-11T19:30:46.794Z,24.1
2023-04-11T19:32:46.802Z,24.1
2023-04-11T19:34:46.798Z,24.3
2023-04-11T19:36:46.761Z,24.2
2023-04-11T19:38:46.759Z,24.1
2023-04-11T19:40:46.752Z,24
2023-04-11T19:42:46.809Z,24.2
2023-04-11T19:44:46.766Z,24.2
2023-04-11T19:46:46.773Z,24.3
2023-04-11T19:48:46.788Z,24.3
2023-04-11T19:50:46.776Z,24.2
2023-04-11T19:52:46.753Z,24.4
2023-04-11T19:54:46.758Z,24.5
2023-04-11T19:56:46.760Z,24.3
2023-04-11T19:58:46.756Z,24.2
2023-04-11T20:00:46.774Z,24.3
2023-04-11T20:02:46.975Z,24.5
2023-04-11T20:04:46.760Z,24.5
2023-04-11T20:06:46.733Z,24.3
2023-04-11T20:08:46.747Z,24.2
2023-04-11T20:10:46.771Z,24.3
2023-04-11T20:12:46.841Z,24.3
2023-04-11T20:14:46.733Z,24.3
2023-04-11T20:16:46.736Z,24.2
2023-04-11T20:18:46.754Z,24.2
2023-04-11T20:20:46.736Z,24.2
2023-04-11T20:22:46.725Z,24.2
2023-04-11T20:24:46.749Z,24.3
2023-04-11T20:26:46.721Z,24.3
2023-04-11T20:28:46.753Z,24.3
2023-04-11T20:30:46.761Z,24.3
2023-04-11T20:32:46.753Z,24.5
2023-04-11T20:34:46.724Z,24.5
2023-04-11T20:36:46.695Z,24.6
2023-04-11T20:38:46.786Z,24.7
2023-04-11T20:40:46.737Z,24.6
2023-04-11T20:42:46.743Z,24.5
2023-04-11T20:44:46.712Z,24.5
2023-04-11T20:46:46.691Z,24.4
2023-04-11T20:48:46.712Z,24.4
2023-04-11T20:50:46.737Z,24.4
2023-04-11T20:52:46.728Z,24.5
2023-04-11T20:54:46.699Z,24.5
2023-04-11T20:56:46.693Z,24.5
2023-04-11T20:58:46.670Z,24.4
2023-04-11T21:00:46.753Z,24.3
2023-04-11T21:02:46.823Z,24.3
2023-04-11T21:04:46.737Z,24.4
2023-04-11T21:06:46.692Z,24.3
2023-04-11T21:08:46.750Z,24.2
2023-04-11T21:10:46.670Z,24.3
2023-04-11T21:12:47.832Z,24.2
2023-04-11T21:14:46.646Z,24.2
2023-04-11T21:16:46.665Z,24.2
2023-04-11T21:18:46.675Z,24.2
2023-04-11T21:20:46.713Z,24.2
2023-04-11T21:22:46.711Z,24.1
2023-04-11T21:24:46.650Z,24.3
2023-04-11T21:26:46.656Z,24.3
2023-04-11T21:28:46.692Z,24.3
2023-04-11T21:30:46.649Z,24.2
2023-04-11T21:32:46.742Z,24.2
2023-04-11T21:34:46.621Z,24.3
2023-04-11T21:36:46.663Z,24.3
2023-04-11T21:38:46.625Z,24.3
2023-04-11T21:40:46.663Z,24.2
2023-04-11T21:42:48.128Z,24.2
2023-04-11T21:44:46.658Z,24.3
2023-04-11T21:46:46.676Z,24.2
2023-04-11T21:48:46.630Z,24.2
2023-04-11T21:50:46.665Z,24.1
2023-04-11T21:52:46.636Z,24.1
2023-04-11T21:54:46.619Z,24.2
2023-04-11T21:56:46.635Z,24.2
2023-04-11T21:58:46.651Z,24.1
2023-04-11T22:00:46.655Z,24
2023-04-11T22:02:46.805Z,23.9
2023-04-11T22:05:01.568Z,24
2023-04-11T22:06:46.634Z,23.9
2023-04-11T22:08:46.636Z,23.8
2023-04-11T22:10:48.426Z,23.8
2023-04-11T22:12:46.605Z,23.7
2023-04-11T22:14:46.601Z,23.8
2023-04-11T22:16:46.657Z,23.7
2023-04-11T22:18:46.637Z,23.6
2023-04-11T22:20:46.632Z,23.6
2023-04-11T22:22:46.650Z,23.5
2023-04-11T22:24:46.689Z,23.6
2023-04-11T22:26:46.608Z,23.6
2023-04-11T22:28:46.586Z,23.5
2023-04-11T22:30:46.608Z,23.5
2023-04-11T22:32:46.616Z,23.5
2023-04-11T22:34:46.569Z,23.5
2023-04-11T22:36:46.630Z,23.4
2023-04-11T22:38:46.581Z,23.4
2023-04-11T22:40:46.602Z,23.4
2023-04-11T22:42:46.554Z,23.3
2023-04-11T22:44:46.560Z,23.3
2023-04-11T22:46:46.543Z,23.2
2023-04-11T22:48:46.575Z,23.1
2023-04-11T22:50:46.602Z,23.1
2023-04-11T22:52:46.553Z,23
2023-04-11T22:54:46.573Z,23.1
2023-04-11T22:56:46.567Z,23
2023-04-11T22:58:46.566Z,22.9
2023-04-11T23:00:46.570Z,22.9
2023-04-11T23:02:46.611Z,22.8
2023-04-11T23:04:46.601Z,22.8
2023-04-11T23:06:46.547Z,22.7
2023-04-11T23:08:46.653Z,22.6
2023-04-11T23:10:46.524Z,22.5
2023-04-11T23:12:46.529Z,22.4
2023-04-11T23:14:46.541Z,22.5
2023-04-11T23:16:46.630Z,22.3
2023-04-11T23:18:46.529Z,22.2
2023-04-11T23:20:46.511Z,22.2
2023-04-11T23:22:46.512Z,22.1
2023-04-11T23:24:46.565Z,22.1
2023-04-11T23:26:46.548Z,21.9
2023-04-11T23:28:46.531Z,21.9
2023-04-11T23:30:46.570Z,21.8
2023-04-11T23:32:46.610Z,21.7
2023-04-11T23:34:46.509Z,21.7
2023-04-11T23:36:46.498Z,21.6
2023-04-11T23:38:46.492Z,21.5
2023-04-11T23:40:46.542Z,21.4
2023-04-11T23:42:46.510Z,21.3
2023-04-11T23:44:46.539Z,21.3
2023-04-11T23:46:46.506Z,21.2
2023-04-11T23:48:46.474Z,21.1
2023-04-11T23:50:46.536Z,21
2023-04-11T23:52:46.496Z,20.9
2023-04-11T23:54:46.467Z,20.9
2023-04-11T23:56:46.509Z,20.8
2023-04-11T23:58:46.481Z,20.6
